Stapleton, Nebraska
Current Conditions -  °F | °C
As of 9:53 AM on Sunday 23 Nov 2014 (Local Time) from KLBF Reporting Station
Clear Clear  
Wind Chill: 35°   Ceiling: Unl
Heat Index: 43°   Visibility: 10mi
Dew Point: 20°   Wind: 18mph
Humidity: 40%   Direction: 350°N
Pressure: 29.69"   Gusts: 28mph
Location:  41.48°N, 100.51°W
Report Text: KLBF 231553Z AUTO 35016G24KT 10SM CLR 06/M07 A2969 RMK AO2 SLP062 T00611067 $
Loading
Personal Weather Stations






























Interactive Weather Map New forecast layout! Learn more

10-Day Weather Forecast

Advertisements
Track Severe Weather on mobile